Time;durP1;ratioP1;P1;durP2;ratioP2;P2;SDS_P1;SDS_P2;PMS_P1;PMS_P2;Temp;Humidity;BMP_temperature;BMP_pressure;BME280_temperature;BME280_humidity;BME280_pressure;Samples;Min_cycle;Max_cycle;Signal;HPM_P1;HPM_P2
2021/07/13 00:01:40;;;;;;;20.35;10.50;;;19.10;99.90;;;;;;4993331;28;20022;-78
2021/07/13 00:04:06;;;;;;;28.77;10.88;;;19.10;99.90;;;;;;4993651;28;20510;-78
2021/07/13 00:06:32;;;;;;;25.45;12.18;;;19.10;99.90;;;;;;5008309;28;20402;-78
2021/07/13 00:08:58;;;;;;;22.63;10.35;;;19.10;99.90;;;;;;4993183;28;20032;-78
2021/07/13 00:11:24;;;;;;;22.33;11.65;;;19.10;99.90;;;;;;4992898;28;20100;-78
2021/07/13 00:13:49;;;;;;;27.60;10.93;;;19.10;99.90;;;;;;4991635;28;20034;-78
2021/07/13 00:16:16;;;;;;;22.80;11.20;;;19.00;99.90;;;;;;5011666;28;20038;-78
2021/07/13 00:18:42;;;;;;;33.47;10.68;;;19.10;99.90;;;;;;5011521;28;20026;-78
2021/07/13 00:21:08;;;;;;;19.75;11.95;;;19.10;99.90;;;;;;5011481;28;20378;-79
2021/07/13 00:23:35;;;;;;;15.20;10.60;;;19.10;99.90;;;;;;5012408;28;20068;-78
2021/07/13 00:26:01;;;;;;;19.60;12.30;;;19.10;99.90;;;;;;4996668;28;20529;-78
2021/07/13 00:28:27;;;;;;;18.63;11.23;;;19.10;99.90;;;;;;5010624;28;20030;-78
2021/07/13 00:30:52;;;;;;;26.08;12.00;;;19.10;99.90;;;;;;5012339;28;20371;-78
2021/07/13 00:33:18;;;;;;;16.75;9.88;;;19.00;99.90;;;;;;5012222;28;20721;-78
2021/07/13 00:35:44;;;;;;;27.77;12.38;;;19.00;99.90;;;;;;5002731;28;20115;-78
2021/07/13 00:38:09;;;;;;;23.77;10.48;;;19.00;99.90;;;;;;4992722;28;20407;-78
2021/07/13 00:40:35;;;;;;;16.83;10.07;;;19.00;99.90;;;;;;4992695;28;20069;-79
2021/07/13 00:43:01;;;;;;;17.33;11.48;;;19.00;99.90;;;;;;4992389;28;20076;-78
2021/07/13 00:45:26;;;;;;;18.88;11.90;;;19.00;99.90;;;;;;4996222;28;20033;-78
2021/07/13 00:47:53;;;;;;;25.98;12.95;;;18.90;99.90;;;;;;5027399;28;20026;-79
2021/07/13 00:50:20;;;;;;;21.13;11.27;;;18.80;99.90;;;;;;5012205;28;20030;-78
2021/07/13 00:52:46;;;;;;;13.27;10.50;;;18.90;99.90;;;;;;5011946;28;20092;-78
2021/07/13 00:55:13;;;;;;;26.55;11.65;;;18.80;99.90;;;;;;5011941;28;20482;-78
2021/07/13 00:57:40;;;;;;;16.85;10.63;;;18.80;99.90;;;;;;5007188;28;20551;-78
2021/07/13 01:00:08;;;;;;;20.52;10.98;;;18.90;99.90;;;;;;5010725;28;20050;-78
2021/07/13 01:02:34;;;;;;;22.13;10.45;;;18.80;99.90;;;;;;5010498;28;20080;-78
2021/07/13 01:05:00;;;;;;;24.42;13.02;;;18.80;99.90;;;;;;5011990;28;20022;-78
2021/07/13 01:07:50;;;;;;;16.23;10.63;;;18.70;99.90;;;;;;4996024;28;20031;-78
2021/07/13 01:10:27;;;;;;;17.63;11.77;;;18.70;99.90;;;;;;4992271;28;20026;-78
2021/07/13 01:13:17;;;;;;;18.90;11.93;;;18.70;99.90;;;;;;5009972;28;20033;-78
2021/07/13 01:15:50;;;;;;;17.77;10.35;;;18.70;99.90;;;;;;5011687;28;20034;-78
2021/07/13 01:18:27;;;;;;;23.77;11.20;;;18.70;99.90;;;;;;4993325;28;20155;-79
2021/07/13 01:21:31;;;;;;;22.63;12.52;;;18.70;99.90;;;;;;4992169;28;20022;-78
2021/07/13 01:24:36;;;;;;;20.35;11.35;;;18.70;99.90;;;;;;4992144;28;20031;-78
2021/07/13 01:27:44;;;;;;;17.55;11.27;;;18.60;99.90;;;;;;4978581;28;20037;-78
2021/07/13 01:30:20;;;;;;;17.20;11.02;;;18.60;99.90;;;;;;5011786;28;20026;-78
2021/07/13 01:33:02;;;;;;;20.02;10.07;;;18.60;99.90;;;;;;5013261;28;20822;-78
2021/07/13 01:35:45;;;;;;;27.67;12.25;;;18.60;99.90;;;;;;5015437;28;20029;-78
2021/07/13 01:38:13;;;;;;;18.10;12.52;;;18.60;99.90;;;;;;5003339;28;20031;-79
2021/07/13 01:40:41;;;;;;;19.15;12.55;;;18.40;99.90;;;;;;4995889;28;20050;-78
2021/07/13 01:43:10;;;;;;;19.08;12.75;;;18.60;99.90;;;;;;5010624;28;20065;-78
2021/07/13 01:45:37;;;;;;;16.30;12.52;;;18.40;99.90;;;;;;5010750;28;20107;-78
2021/07/13 01:48:03;;;;;;;21.67;13.82;;;18.60;99.90;;;;;;5018778;28;20406;-78
2021/07/13 01:50:31;;;;;;;27.67;14.55;;;18.60;99.90;;;;;;5015343;28;20030;-78
2021/07/13 01:52:57;;;;;;;20.70;12.57;;;18.60;99.90;;;;;;5014982;28;20402;-78
2021/07/13 01:55:23;;;;;;;16.33;10.60;;;18.50;99.90;;;;;;5015052;28;20026;-78
2021/07/13 01:57:51;;;;;;;17.17;13.05;;;18.60;99.90;;;;;;5014216;28;20018;-78
2021/07/13 02:00:17;;;;;;;15.65;11.82;;;18.60;99.90;;;;;;5015108;28;20025;-78
2021/07/13 02:02:45;;;;;;;18.30;12.00;;;18.60;99.90;;;;;;5030332;28;20030;-78
2021/07/13 02:05:11;;;;;;;23.25;12.88;;;18.70;99.90;;;;;;5030192;28;20398;-77
2021/07/13 02:07:41;;;;;;;18.17;13.13;;;18.70;99.90;;;;;;5015018;28;20052;-77
2021/07/13 02:10:07;;;;;;;21.25;14.10;;;18.70;99.90;;;;;;4995472;28;20034;-78
2021/07/13 02:12:34;;;;;;;20.10;14.60;;;18.80;99.90;;;;;;5010203;28;20372;-78
2021/07/13 02:15:00;;;;;;;21.55;14.57;;;18.80;99.90;;;;;;4993849;28;20033;-78
2021/07/13 02:17:29;;;;;;;28.50;12.77;;;18.80;99.90;;;;;;4995221;28;20077;-78
2021/07/13 02:19:57;;;;;;;18.65;13.75;;;18.80;99.90;;;;;;5024713;28;20445;-78
2021/07/13 02:22:23;;;;;;;18.17;13.13;;;18.80;99.90;;;;;;5014350;28;20037;-78
2021/07/13 02:24:48;;;;;;;20.50;13.60;;;18.80;99.90;;;;;;4998357;28;20030;-78
2021/07/13 02:27:19;;;;;;;21.88;13.82;;;18.90;99.90;;;;;;5005832;28;20030;-78
2021/07/13 02:29:48;;;;;;;21.65;14.50;;;18.70;99.90;;;;;;5029852;28;20033;-78
2021/07/13 02:32:21;;;;;;;26.55;15.57;;;18.80;99.90;;;;;;5014325;28;20030;-78
2021/07/13 02:34:48;;;;;;;21.50;15.75;;;18.80;99.90;;;;;;5001710;28;20109;-78
2021/07/13 02:37:15;;;;;;;29.52;14.80;;;18.90;99.90;;;;;;4994755;28;20030;-78
2021/07/13 02:39:43;;;;;;;27.58;14.75;;;18.80;99.90;;;;;;4994751;28;20028;-78
2021/07/13 02:42:09;;;;;;;23.05;13.68;;;18.90;99.90;;;;;;4994532;28;20398;-78
2021/07/13 02:44:36;;;;;;;29.35;15.02;;;18.90;99.90;;;;;;5013714;28;20026;-78
2021/07/13 02:47:09;;;;;;;27.40;14.07;;;18.90;99.90;;;;;;5012924;28;20072;-78
2021/07/13 02:49:43;;;;;;;25.60;14.63;;;18.90;99.90;;;;;;5012778;28;20018;-78
2021/07/13 02:52:11;;;;;;;22.63;13.45;;;18.70;99.90;;;;;;5012724;28;20033;-78
2021/07/13 02:54:39;;;;;;;18.95;13.23;;;19.00;99.90;;;;;;5007022;28;20045;-78
2021/07/13 02:57:05;;;;;;;17.20;12.35;;;18.80;99.90;;;;;;4994470;28;20582;-78
2021/07/13 02:59:33;;;;;;;18.25;12.20;;;18.80;99.90;;;;;;4994415;28;20109;-78
2021/07/13 03:02:00;;;;;;;22.52;14.68;;;18.80;99.90;;;;;;5009173;28;20029;-79
2021/07/13 03:04:25;;;;;;;24.60;15.48;;;18.80;99.90;;;;;;4994577;28;20022;-78
2021/07/13 03:06:52;;;;;;;29.63;16.75;;;18.80;99.90;;;;;;4994333;28;20057;-78
2021/07/13 03:09:18;;;;;;;32.30;18.88;;;18.90;99.90;;;;;;4994301;28;20030;-78
2021/07/13 03:11:45;;;;;;;28.15;18.58;;;18.90;99.90;;;;;;4992678;28;20028;-78
2021/07/13 03:14:14;;;;;;;29.58;19.65;;;19.00;99.90;;;;;;4993800;28;20037;-78
2021/07/13 03:16:40;;;;;;;32.33;17.13;;;18.90;99.90;;;;;;5008728;28;20038;-78
2021/07/13 03:19:07;;;;;;;50.17;20.65;;;18.90;99.90;;;;;;5013635;28;20021;-78
2021/07/13 03:21:34;;;;;;;34.08;20.63;;;19.10;99.90;;;;;;5013411;28;20033;-78
2021/07/13 03:24:03;;;;;;;33.13;20.70;;;19.10;99.90;;;;;;5013455;28;20050;-78
2021/07/13 03:26:31;;;;;;;29.88;18.95;;;19.10;99.90;;;;;;5002977;28;20033;-78
2021/07/13 03:28:58;;;;;;;32.60;18.92;;;19.00;99.90;;;;;;5013470;28;20079;-78
2021/07/13 03:31:27;;;;;;;35.10;21.10;;;19.00;99.90;;;;;;5011982;28;20088;-78
2021/07/13 03:33:58;;;;;;;36.17;21.67;;;18.90;99.90;;;;;;5013312;28;20539;-78
2021/07/13 03:36:24;;;;;;;32.28;19.35;;;19.00;99.90;;;;;;5003343;28;20037;-78
2021/07/13 03:38:52;;;;;;;37.47;23.63;;;18.90;99.90;;;;;;4993690;28;20545;-77
2021/07/13 03:41:18;;;;;;;30.23;20.25;;;19.00;99.90;;;;;;5008366;28;20030;-78
2021/07/13 03:43:44;;;;;;;28.92;18.13;;;18.90;99.90;;;;;;4993631;28;20026;-78
2021/07/13 03:46:11;;;;;;;34.92;20.40;;;19.10;99.90;;;;;;4996951;28;20026;-78
2021/07/13 03:48:37;;;;;;;32.35;21.27;;;19.00;99.90;;;;;;5013253;28;20033;-77
2021/07/13 03:51:03;;;;;;;26.50;18.02;;;18.90;99.90;;;;;;5004078;28;20037;-78
2021/07/13 03:53:28;;;;;;;30.38;19.88;;;19.00;99.90;;;;;;4993331;28;20391;-78
2021/07/13 03:55:54;;;;;;;41.78;21.65;;;19.00;99.90;;;;;;4991606;28;20034;-78
2021/07/13 03:58:20;;;;;;;28.63;19.40;;;19.10;99.90;;;;;;5011535;28;20026;-78
2021/07/13 04:00:45;;;;;;;37.53;22.13;;;19.00;99.90;;;;;;5012838;28;20029;-77
2021/07/13 04:03:11;;;;;;;33.22;21.08;;;19.00;99.90;;;;;;5012668;28;20025;-78
2021/07/13 04:05:37;;;;;;;33.20;19.50;;;18.90;99.90;;;;;;5027978;28;20030;-78
2021/07/13 04:08:04;;;;;;;32.42;20.52;;;19.10;99.90;;;;;;4999255;28;20507;-78
2021/07/13 04:10:30;;;;;;;41.40;23.05;;;19.00;99.90;;;;;;4991787;28;20030;-78
2021/07/13 04:12:55;;;;;;;44.92;22.38;;;19.10;99.90;;;;;;4992644;28;20546;-78
2021/07/13 04:15:21;;;;;;;34.92;20.90;;;19.10;99.90;;;;;;5007975;28;20034;-78
2021/07/13 04:17:47;;;;;;;41.47;23.80;;;19.20;99.90;;;;;;5016194;28;20453;-78
2021/07/13 04:20:13;;;;;;;32.95;20.83;;;19.20;99.90;;;;;;5012564;28;20026;-78
2021/07/13 04:22:41;;;;;;;40.25;24.05;;;19.20;99.90;;;;;;5012152;28;20029;-78
2021/07/13 04:25:07;;;;;;;35.40;21.15;;;19.30;99.90;;;;;;4998852;28;20407;-79
2021/07/13 04:27:33;;;;;;;40.85;23.88;;;19.30;99.90;;;;;;4992862;28;20023;-78
2021/07/13 04:29:59;;;;;;;35.75;22.63;;;19.30;99.90;;;;;;4992883;28;20037;-78
2021/07/13 04:32:24;;;;;;;31.95;20.73;;;19.40;99.90;;;;;;4992591;28;20036;-77
2021/07/13 04:34:50;;;;;;;40.45;23.35;;;19.50;99.90;;;;;;5015490;28;20044;-78
2021/07/13 04:37:16;;;;;;;35.47;23.77;;;19.60;99.90;;;;;;5011092;28;20033;-77
2021/07/13 04:39:41;;;;;;;42.53;21.42;;;19.60;99.90;;;;;;5027429;28;20119;-78
2021/07/13 04:42:07;;;;;;;32.08;21.40;;;19.60;99.90;;;;;;5012052;28;20029;-78
2021/07/13 04:44:32;;;;;;;34.33;23.27;;;19.80;99.90;;;;;;5008877;28;20022;-78
2021/07/13 04:46:58;;;;;;;34.25;23.05;;;19.90;99.90;;;;;;5007680;28;20034;-78
2021/07/13 04:49:25;;;;;;;33.83;19.65;;;19.80;99.90;;;;;;4992525;28;20479;-78
2021/07/13 04:51:51;;;;;;;36.60;23.05;;;19.90;99.90;;;;;;5007437;28;20093;-78
2021/07/13 04:54:17;;;;;;;29.92;21.63;;;20.00;99.90;;;;;;5007500;28;20490;-78
2021/07/13 04:56:42;;;;;;;31.50;18.77;;;19.90;99.90;;;;;;5008602;28;20450;-78
2021/07/13 04:59:08;;;;;;;35.92;21.92;;;20.10;99.90;;;;;;5012078;28;20394;-77
2021/07/13 05:01:33;;;;;;;29.63;20.20;;;20.10;99.90;;;;;;5011805;28;20457;-78
2021/07/13 05:03:59;;;;;;;33.75;18.85;;;20.20;99.90;;;;;;5027067;28;20026;-78
2021/07/13 05:06:24;;;;;;;37.53;20.38;;;20.20;99.90;;;;;;4999237;28;20034;-78
2021/07/13 05:08:50;;;;;;;35.92;20.52;;;20.20;99.90;;;;;;4996053;28;20030;-78
2021/07/13 05:11:15;;;;;;;28.00;20.52;;;20.20;99.90;;;;;;4996209;28;20454;-78
2021/07/13 05:13:41;;;;;;;29.90;20.58;;;20.30;99.90;;;;;;4996240;28;20030;-78
2021/07/13 05:16:07;;;;;;;32.20;21.73;;;20.40;99.90;;;;;;4999078;28;20034;-78
2021/07/13 05:18:34;;;;;;;27.98;20.75;;;20.40;99.90;;;;;;5015900;28;20109;-78
2021/07/13 05:21:03;;;;;;;30.77;21.92;;;20.30;99.90;;;;;;5030922;28;20060;-78
2021/07/13 05:23:29;;;;;;;31.30;22.65;;;20.20;99.90;;;;;;5030841;28;20371;-78
2021/07/13 05:25:54;;;;;;;40.10;22.20;;;20.20;99.90;;;;;;5012627;28;20079;-78
2021/07/13 05:28:20;;;;;;;33.03;22.35;;;20.10;99.90;;;;;;4996173;28;20121;-78
2021/07/13 05:30:46;;;;;;;35.03;22.40;;;20.20;99.90;;;;;;4994773;28;20104;-78
2021/07/13 05:33:14;;;;;;;28.75;22.13;;;20.30;99.90;;;;;;5010891;28;20479;-78
2021/07/13 05:35:42;;;;;;;35.90;23.10;;;20.40;99.90;;;;;;4995883;28;20296;-78
2021/07/13 05:38:08;;;;;;;37.08;20.20;;;20.30;99.90;;;;;;5011614;28;20022;-78
2021/07/13 05:40:34;;;;;;;23.90;17.85;;;20.30;99.90;;;;;;5030730;28;20022;-78
2021/07/13 05:42:59;;;;;;;33.22;21.02;;;20.50;99.90;;;;;;5001440;28;20065;-78
2021/07/13 05:45:25;;;;;;;31.95;20.92;;;20.50;99.90;;;;;;5010785;28;20038;-78
2021/07/13 05:47:51;;;;;;;30.27;21.38;;;20.50;99.90;;;;;;5022741;28;20033;-78
2021/07/13 05:50:16;;;;;;;31.17;22.40;;;20.50;99.90;;;;;;5014220;28;20393;-78
2021/07/13 05:52:42;;;;;;;31.67;20.77;;;20.60;99.90;;;;;;5012633;28;20080;-78
2021/07/13 05:55:09;;;;;;;22.60;17.42;;;20.70;99.90;;;;;;4995473;28;20061;-78
2021/07/13 05:57:35;;;;;;;27.33;19.55;;;20.70;99.90;;;;;;5002366;28;20025;-78
2021/07/13 06:00:02;;;;;;;32.90;23.08;;;20.60;99.90;;;;;;5015058;28;20032;-78
2021/07/13 06:02:28;;;;;;;37.88;20.90;;;20.90;99.90;;;;;;5012853;28;20079;-78
2021/07/13 06:04:53;;;;;;;28.13;19.77;;;20.80;99.90;;;;;;5014733;28;20022;-77
2021/07/13 06:07:19;;;;;;;29.63;20.48;;;20.80;99.90;;;;;;5011141;28;20026;-78
2021/07/13 06:09:44;;;;;;;35.30;23.42;;;20.90;99.90;;;;;;4993901;28;20030;-78
2021/07/13 06:12:10;;;;;;;37.53;22.63;;;20.90;99.90;;;;;;4994543;28;20030;-79
2021/07/13 06:14:40;;;;;;;34.10;21.70;;;21.00;99.90;;;;;;4995130;28;20582;-78
2021/07/13 06:17:07;;;;;;;28.60;22.52;;;21.10;99.90;;;;;;4993880;28;20434;-78
2021/07/13 06:19:33;;;;;;;37.60;23.58;;;21.10;99.90;;;;;;5012063;28;20029;-79
2021/07/13 06:21:59;;;;;;;28.95;20.20;;;21.10;99.90;;;;;;5012940;28;20501;-80
2021/07/13 06:24:25;;;;;;;29.63;21.92;;;21.10;99.90;;;;;;5014428;28;20053;-81
2021/07/13 06:26:50;;;;;;;30.10;20.75;;;21.30;99.90;;;;;;5029701;28;20513;-80
2021/07/13 06:29:17;;;;;;;28.42;20.80;;;21.40;99.90;;;;;;5001933;28;20142;-80
2021/07/13 06:31:43;;;;;;;28.50;19.25;;;21.40;99.90;;;;;;5009686;28;20477;-80
2021/07/13 06:34:09;;;;;;;24.73;18.70;;;21.40;99.90;;;;;;4993436;28;20034;-81
2021/07/13 06:36:34;;;;;;;26.65;21.27;;;21.40;99.90;;;;;;4994731;28;20033;-80
2021/07/13 06:39:00;;;;;;;31.88;21.45;;;21.40;99.90;;;;;;5016717;28;20052;-80
2021/07/13 06:41:25;;;;;;;30.52;19.88;;;21.30;99.90;;;;;;5029178;28;20056;-81
2021/07/13 06:43:51;;;;;;;31.10;20.52;;;21.30;99.90;;;;;;5014112;28;20026;-80
2021/07/13 06:46:16;;;;;;;32.15;22.33;;;21.30;99.90;;;;;;5029442;28;20431;-80
2021/07/13 06:48:42;;;;;;;38.30;21.42;;;21.30;99.90;;;;;;5011800;28;20475;-82
2021/07/13 06:51:07;;;;;;;31.25;19.30;;;21.20;99.90;;;;;;4994522;28;20479;-81
2021/07/13 06:53:33;;;;;;;25.92;18.45;;;21.60;99.90;;;;;;4994230;28;20069;-81
2021/07/13 06:55:59;;;;;;;19.83;14.88;;;21.60;99.90;;;;;;4994153;28;20096;-81
2021/07/13 06:58:24;;;;;;;25.35;18.08;;;21.70;99.90;;;;;;4994479;28;20080;-81
2021/07/13 07:00:50;;;;;;;24.13;18.33;;;21.50;99.90;;;;;;5009196;28;20030;-81
2021/07/13 07:03:15;;;;;;;21.38;16.50;;;21.50;99.90;;;;;;5013716;28;20060;-80
2021/07/13 07:05:41;;;;;;;26.73;17.58;;;21.70;99.90;;;;;;5028840;28;20073;-82
2021/07/13 07:08:06;;;;;;;23.02;15.80;;;21.90;99.90;;;;;;5013665;28;20033;-81
2021/07/13 07:10:33;;;;;;;23.23;16.67;;;21.90;99.90;;;;;;5002583;28;20475;-81
2021/07/13 07:12:58;;;;;;;26.65;15.45;;;22.00;99.90;;;;;;5008776;28;20032;-81
2021/07/13 07:15:24;;;;;;;20.30;15.32;;;22.00;99.90;;;;;;5008980;28;20030;-81
2021/07/13 07:17:53;;;;;;;28.25;16.70;;;22.20;99.90;;;;;;5009111;28;20026;-81
2021/07/13 07:20:25;;;;;;;18.50;13.77;;;22.00;99.90;;;;;;5015003;28;20054;-82
2021/07/13 07:22:51;;;;;;;17.80;13.30;;;22.20;99.90;;;;;;5028444;28;20034;-79
2021/07/13 07:25:16;;;;;;;22.05;15.55;;;22.10;99.90;;;;;;5028490;28;20040;-82
2021/07/13 07:27:43;;;;;;;20.58;14.73;;;22.10;99.90;;;;;;5013517;28;20030;-81
2021/07/13 07:30:10;;;;;;;22.08;16.05;;;21.90;99.90;;;;;;5008911;28;20038;-81
2021/07/13 07:32:37;;;;;;;22.92;17.20;;;22.00;99.90;;;;;;5008706;28;20026;-84
2021/07/13 07:35:05;;;;;;;17.35;15.13;;;21.90;99.90;;;;;;5024948;28;20104;-81
2021/07/13 07:37:31;;;;;;;19.77;12.00;;;21.80;99.90;;;;;;5011997;28;20033;-80
2021/07/13 07:39:56;;;;;;;23.73;13.77;;;21.80;99.90;;;;;;5013303;28;20025;-80
2021/07/13 07:42:22;;;;;;;20.52;13.48;;;21.90;99.90;;;;;;4995026;28;20487;-81
2021/07/13 07:44:48;;;;;;;18.63;11.82;;;21.80;99.90;;;;;;4993511;28;20030;-81
2021/07/13 07:47:14;;;;;;;17.00;13.52;;;21.70;99.90;;;;;;4993330;28;20022;-80
2021/07/13 07:49:39;;;;;;;23.83;14.50;;;21.90;99.90;;;;;;4993418;28;20030;-80
2021/07/13 07:52:05;;;;;;;19.27;13.50;;;21.80;99.90;;;;;;5003985;28;20037;-81
2021/07/13 07:54:31;;;;;;;20.90;13.48;;;21.80;99.90;;;;;;5011564;28;20025;-80
2021/07/13 07:56:57;;;;;;;17.17;11.25;;;21.80;99.90;;;;;;5012881;28;20030;-81
2021/07/13 07:59:22;;;;;;;17.90;13.30;;;21.80;99.90;;;;;;5011565;28;20065;-81
2021/07/13 08:01:48;;;;;;;22.75;13.95;;;21.70;99.90;;;;;;5024380;28;20521;-81
2021/07/13 08:04:14;;;;;;;20.17;13.45;;;21.70;99.90;;;;;;5027830;28;20041;-81
2021/07/13 08:06:40;;;;;;;19.65;12.55;;;21.60;99.90;;;;;;5012655;28;20030;-80
2021/07/13 08:09:09;;;;;;;21.45;14.82;;;21.70;99.90;;;;;;5012857;28;20376;-81
2021/07/13 08:11:36;;;;;;;17.80;14.43;;;21.60;99.90;;;;;;5009486;28;20044;-82
2021/07/13 08:14:04;;;;;;;19.25;14.82;;;21.60;99.90;;;;;;5011882;28;20041;-80
2021/07/13 08:16:35;;;;;;;22.92;15.32;;;21.80;99.90;;;;;;5011320;28;20040;-80
2021/07/13 08:19:01;;;;;;;20.52;15.80;;;21.60;99.90;;;;;;5011204;28;20053;-81
2021/07/13 08:21:26;;;;;;;23.83;16.55;;;21.80;99.90;;;;;;5012181;28;20119;-81
2021/07/13 08:23:52;;;;;;;25.10;14.60;;;22.10;99.90;;;;;;5010333;28;20030;-78
2021/07/13 08:26:17;;;;;;;22.90;14.70;;;22.10;99.90;;;;;;5012349;28;20034;-78
2021/07/13 08:28:43;;;;;;;26.02;15.55;;;22.50;99.90;;;;;;5027457;28;20033;-78
2021/07/13 08:31:08;;;;;;;17.45;12.70;;;22.40;99.90;;;;;;5012243;28;20034;-79
2021/07/13 08:33:34;;;;;;;21.17;13.98;;;22.40;99.90;;;;;;4996941;28;20030;-80
2021/07/13 08:36:00;;;;;;;25.35;16.85;;;22.40;99.90;;;;;;5022151;28;20037;-79
2021/07/13 08:38:25;;;;;;;26.13;15.75;;;22.50;99.90;;;;;;5027430;28;20076;-78
2021/07/13 08:40:51;;;;;;;20.42;15.75;;;22.30;99.90;;;;;;5026814;28;20381;-80
2021/07/13 08:43:17;;;;;;;24.75;14.82;;;22.20;99.90;;;;;;5011610;28;20022;-79
2021/07/13 08:45:43;;;;;;;24.30;15.13;;;22.30;99.90;;;;;;5009327;28;20030;-79
2021/07/13 08:48:13;;;;;;;21.35;16.00;;;22.30;99.90;;;;;;5017268;28;20470;-79
2021/07/13 08:50:39;;;;;;;24.20;16.38;;;22.30;99.90;;;;;;5021402;28;20032;-79
2021/07/13 08:53:05;;;;;;;16.85;12.63;;;22.30;99.90;;;;;;5021417;28;20081;-79
2021/07/13 08:55:31;;;;;;;16.40;13.25;;;22.20;99.90;;;;;;5017414;28;20861;-78
2021/07/13 08:57:57;;;;;;;17.17;14.95;;;22.40;99.90;;;;;;5008137;28;20038;-78
2021/07/13 09:00:23;;;;;;;19.75;15.40;;;22.60;99.90;;;;;;5028429;28;20102;-78
2021/07/13 09:03:07;;;;;;;24.55;15.55;;;22.80;99.90;;;;;;5031405;28;20029;-79
2021/07/13 09:05:41;;;;;;;26.58;16.35;;;22.90;99.90;;;;;;4994723;28;20037;-79
2021/07/13 09:08:30;;;;;;;25.98;14.90;;;23.00;99.90;;;;;;5020862;28;20538;-81
2021/07/13 09:10:59;;;;;;;21.50;14.68;;;23.10;99.90;;;;;;5012635;28;20064;-79
2021/07/13 09:13:26;;;;;;;19.65;14.43;;;23.20;99.90;;;;;;5023569;28;20113;-80
2021/07/13 09:15:56;;;;;;;22.23;15.05;;;23.00;99.90;;;;;;5019750;28;20022;-80
2021/07/13 09:18:45;;;;;;;17.48;13.82;;;23.10;99.90;;;;;;5010737;28;20427;-81
2021/07/13 09:21:12;;;;;;;23.35;15.15;;;23.10;99.90;;;;;;5016346;28;20033;-80
2021/07/13 09:24:04;;;;;;;26.70;15.40;;;23.20;99.90;;;;;;5008480;28;20030;-82
2021/07/13 09:26:41;;;;;;;20.00;15.15;;;23.30;99.90;;;;;;5004513;28;20615;-80
2021/07/13 09:29:09;;;;;;;22.40;14.05;;;23.50;99.90;;;;;;5003889;28;20027;-81
2021/07/13 09:31:35;;;;;;;19.27;15.25;;;23.70;99.90;;;;;;5011589;28;20030;-80
2021/07/13 09:34:00;;;;;;;27.95;14.82;;;23.60;99.90;;;;;;5006872;28;20037;-80
2021/07/13 09:36:26;;;;;;;18.38;13.85;;;23.60;99.90;;;;;;5006834;28;20485;-80
2021/07/13 09:38:54;;;;;;;25.63;15.23;;;23.80;99.90;;;;;;5013247;28;20390;-80
2021/07/13 09:41:21;;;;;;;27.67;16.73;;;23.90;99.90;;;;;;5025081;28;20377;-80
2021/07/13 09:43:59;;;;;;;22.50;13.95;;;24.00;99.90;;;;;;5025681;28;20025;-80
2021/07/13 09:46:41;;;;;;;31.58;17.88;;;24.00;99.90;;;;;;5016591;28;20056;-80
2021/07/13 09:49:12;;;;;;;23.95;15.50;;;24.10;99.90;;;;;;5010570;28;20037;-80
2021/07/13 09:51:39;;;;;;;22.92;17.10;;;24.00;99.90;;;;;;5014888;28;20017;-80
2021/07/13 09:54:26;;;;;;;29.67;15.80;;;23.90;99.90;;;;;;5027293;28;20024;-79
2021/07/13 09:56:51;;;;;;;20.13;15.30;;;24.00;99.90;;;;;;5007857;28;20029;-79
2021/07/13 09:59:17;;;;;;;35.72;17.80;;;24.10;99.90;;;;;;5021592;28;20025;-80
2021/07/13 10:01:44;;;;;;;24.45;15.70;;;24.20;99.90;;;;;;5020877;28;20022;-80
2021/07/13 10:04:10;;;;;;;25.40;19.52;;;24.10;99.90;;;;;;5025948;28;20386;-80
2021/07/13 10:06:37;;;;;;;26.55;17.98;;;24.30;99.90;;;;;;5011832;28;20034;-80
2021/07/13 10:09:11;;;;;;;23.75;15.75;;;24.30;99.90;;;;;;5012543;28;20654;-81
2021/07/13 10:11:40;;;;;;;29.00;18.10;;;24.40;99.90;;;;;;5018522;28;20534;-80
2021/07/13 10:14:09;;;;;;;21.73;15.05;;;24.40;99.90;;;;;;5020542;28;20434;-79
2021/07/13 10:16:36;;;;;;;20.35;12.20;;;24.50;99.90;;;;;;5019582;28;20037;-80
2021/07/13 10:19:04;;;;;;;29.75;14.35;;;24.70;99.90;;;;;;5010669;28;20905;-79
2021/07/13 10:21:30;;;;;;;21.60;12.93;;;24.70;99.90;;;;;;4994999;28;20034;-79
2021/07/13 10:23:57;;;;;;;24.52;14.43;;;24.60;99.90;;;;;;4995065;28;20037;-80
2021/07/13 10:26:42;;;;;;;21.48;13.50;;;24.90;99.90;;;;;;4996174;28;20049;-80
2021/07/13 10:29:32;;;;;;;19.88;13.40;;;25.30;99.90;;;;;;5029719;28;20113;-80
2021/07/13 10:32:02;;;;;;;18.55;13.88;;;25.60;99.90;;;;;;5021920;28;20018;-82
2021/07/13 10:34:48;;;;;;;26.42;13.95;;;25.80;99.90;;;;;;5018561;28;20021;-80
2021/07/13 10:37:34;;;;;;;24.48;11.48;;;26.10;99.90;;;;;;5016843;28;20065;-80
2021/07/13 10:40:06;;;;;;;18.92;11.80;;;26.70;99.90;;;;;;5013101;28;20029;-81
2021/07/13 10:42:41;;;;;;;14.40;11.10;;;27.20;99.90;;;;;;5014121;28;20104;-82
2021/07/13 10:45:20;;;;;;;21.65;12.65;;;27.20;99.90;;;;;;5014268;28;20553;-80
2021/07/13 10:48:15;;;;;;;20.02;12.77;;;26.90;99.90;;;;;;5021690;28;20034;-80
2021/07/13 10:50:53;;;;;;;16.52;11.95;;;26.70;99.90;;;;;;4996093;28;20403;-81
2021/07/13 10:53:24;;;;;;;15.48;10.65;;;26.80;99.90;;;;;;5029164;28;20030;-80
2021/07/13 10:55:58;;;;;;;20.40;11.10;;;26.80;99.90;;;;;;5007384;28;20026;-82
2021/07/13 10:58:25;;;;;;;18.95;13.27;;;26.80;99.90;;;;;;5009500;28;20033;-81
2021/07/13 11:00:56;;;;;;;21.40;14.13;;;26.70;99.90;;;;;;5009232;28;20398;-82
2021/07/13 11:03:27;;;;;;;16.58;12.23;;;26.60;99.90;;;;;;5011959;28;20385;-80
2021/07/13 11:06:03;;;;;;;19.17;12.00;;;26.50;99.90;;;;;;5028019;28;20564;-78
2021/07/13 11:11:10;;;;;;;21.65;14.85;;;26.90;99.90;;;;;;5013246;28;20158;-79
2021/07/13 11:13:37;;;;;;;18.88;12.07;;;27.20;99.90;;;;;;5013305;28;20026;-77
2021/07/13 11:16:03;;;;;;;17.63;14.90;;;27.20;99.90;;;;;;5012088;28;20030;-79
2021/07/13 11:18:30;;;;;;;20.35;11.95;;;27.20;99.90;;;;;;5013300;28;20029;-78
2021/07/13 11:21:19;;;;;;;19.35;14.57;;;27.20;99.90;;;;;;5012245;28;20033;-79
2021/07/13 11:23:49;;;;;;;26.67;13.15;;;27.10;99.90;;;;;;5011318;28;20529;-80
2021/07/13 11:26:17;;;;;;;15.35;9.70;;;27.10;99.90;;;;;;5009355;28;20037;-79
2021/07/13 11:28:57;;;;;;;22.73;12.23;;;27.40;99.90;;;;;;5016644;28;20521;-80
2021/07/13 11:31:26;;;;;;;16.73;13.15;;;27.70;99.90;;;;;;5004371;28;20045;-80
2021/07/13 11:33:53;;;;;;;16.02;11.23;;;27.90;99.90;;;;;;5027218;28;20037;-78
2021/07/13 11:36:48;;;;;;;15.88;10.27;;;28.20;99.90;;;;;;5019314;28;20048;-80
2021/07/13 11:39:21;;;;;;;15.15;10.48;;;28.70;99.90;;;;;;5010209;28;20125;-78
2021/07/13 11:41:46;;;;;;;14.18;8.90;;;28.90;99.90;;;;;;4993544;28;20033;-79
2021/07/13 11:44:12;;;;;;;10.55;9.45;;;29.20;99.90;;;;;;4992241;28;20026;-80
2021/07/13 11:46:44;;;;;;;13.82;8.95;;;29.10;99.90;;;;;;4999280;28;20397;-80
2021/07/13 11:49:19;;;;;;;13.50;8.48;;;29.30;99.90;;;;;;5013124;28;20026;-79
2021/07/13 11:52:04;;;;;;;13.10;8.73;;;29.60;99.90;;;;;;5012741;28;20036;-79
2021/07/13 11:54:38;;;;;;;13.60;8.90;;;29.90;99.90;;;;;;5012925;28;20029;-79
2021/07/13 11:57:06;;;;;;;14.30;8.93;;;29.70;99.90;;;;;;5004906;28;20030;-80
2021/07/13 11:59:33;;;;;;;13.43;10.77;;;29.80;99.90;;;;;;5007317;28;20037;-79
2021/07/13 12:02:02;;;;;;;15.98;10.23;;;29.90;99.90;;;;;;5004639;28;20025;-79
2021/07/13 12:04:29;;;;;;;13.63;9.27;;;30.20;99.90;;;;;;5012624;28;20026;-79
2021/07/13 12:06:57;;;;;;;9.13;7.72;;;30.30;99.90;;;;;;5024331;28;20026;-78
2021/07/13 12:09:37;;;;;;;14.20;8.52;;;30.30;99.90;;;;;;4991654;28;20037;-78
2021/07/13 12:12:07;;;;;;;12.65;7.95;;;29.80;99.90;;;;;;4994572;28;20380;-81
2021/07/13 12:14:34;;;;;;;13.55;8.75;;;29.40;99.90;;;;;;4992961;28;20088;-81
2021/07/13 12:16:59;;;;;;;14.05;8.25;;;29.30;99.90;;;;;;5007898;28;20026;-80
2021/07/13 12:19:27;;;;;;;12.45;7.88;;;29.80;99.90;;;;;;4993021;28;20502;-80
2021/07/13 12:22:02;;;;;;;11.88;7.50;;;30.60;99.90;;;;;;4993760;28;20068;-79
2021/07/13 12:24:30;;;;;;;15.10;7.57;;;31.20;99.90;;;;;;5007811;28;20535;-80
2021/07/13 12:26:58;;;;;;;9.10;6.90;;;31.60;99.90;;;;;;5013569;28;20049;-80
2021/07/13 12:29:35;;;;;;;13.02;7.70;;;32.10;99.90;;;;;;5007905;28;20030;-81
2021/07/13 12:32:03;;;;;;;12.10;7.40;;;32.40;99.90;;;;;;5023483;28;20038;-81
2021/07/13 12:34:49;;;;;;;9.02;6.78;;;32.30;99.90;;;;;;5010035;28;20108;-82
2021/07/13 12:37:28;;;;;;;15.40;6.93;;;32.60;99.90;;;;;;5008330;28;20026;-81
2021/07/13 12:40:00;;;;;;;9.65;5.95;;;32.80;99.90;;;;;;5021627;28;20022;-81